Terminal Aerodrome Forecast
Issued by NWS Melbourne, FL

Home | Current Version | Previous Version | Text Only | Print | Product List | Glossary On
Versions: 1 2 3 4 5 6 7 8 9 10 11 12 13 14 15 16 17 18 19 20 21 22 23
000
FTUS42 KMLB 232049 AAA
TAFMCO
TAF AMD
KMCO 232049Z 2321/2424 09011KT P6SM VCSH SCT040 SCT070
     FM232300 10008KT P6SM FEW040
     FM240600 10003KT P6SM FEW025
      TEMPO 2409/2413 5SM BR
     FM241400 13008KT P6SM SCT035
     FM241800 13009KT P6SM BKN050=

USA.gov is the U.S. government's official web portal to all federal, state and local government web resources and services.